Surface/Precipitation History
01/23/2017 04:08  to  1/24/2017 04:08
Change End Date:
Date/Time
(MST)
Sf
Temp Chem Water Layer Surface Precipitation
Sfc Pvt Sub Frz Factor Pct Dpth DpthThk IcePct Cond Salin FI Type Intens Accum Rate
01/24/2017 04:06 Ice Warning 9.7F - 26F 32F 5 0% - - 100% 1 mhos 83 - None None 0.04 in 0.0 iph
01/24/2017 04:03 Ice Warning 9.7F - 26F 32F 5 0% - - 100% 1 mhos 83 - None None 0.04 in 0.0 iph
01/24/2017 03:53 Ice Warning 9.7F - 26F 32F 5 0% - - 100% 1 mhos 83 - None None 0.04 in 0.0 iph
01/24/2017 03:51 Ice Warning 9.5F - 26F 32F 5 0% - - 100% 1 mhos 83 - None None 0.04 in 0.0 iph
01/24/2017 03:43 Ice Warning 9.5F - 26F 32F 5 0% - - 100% 1 mhos 82 - None None 0.04 in 0.0 iph
01/24/2017 03:36 Ice Warning 9.3F - 26F 32F 5 0% - - 100% 1 mhos 82 - None None 0.04 in 0.0 iph
01/24/2017 03:33 Ice Warning 9.1F - 26F 32F 5 0% - - 100% 1 mhos 82 - None None 0.04 in 0.0 iph
01/24/2017 03:23 Ice Warning 9.1F - 26F 32F 5 0% - - 100% 1 mhos 81 - None None 0.04 in 0.0 iph
01/24/2017 03:21 Ice Warning 9.0F - 26F 32F 5 0% - - 100% 1 mhos 81 - None None 0.04 in 0.0 iph
01/24/2017 03:13 Ice Warning 8.6F - 26F 32F 5 0% - - 100% 1 mhos 79 - None None 0.04 in 0.0 iph
01/24/2017 03:06 Ice Warning 8.2F - 26F 32F 5 0% - - 100% 1 mhos 78 - None None 0.04 in 0.0 iph
01/24/2017 03:02 Ice Warning 8.2F - 26F 32F 5 0% - - 100% 1 mhos 78 - None None 0.04 in 0.0 iph
01/24/2017 02:52 Ice Warning 7.7F - 26F 32F 5 0% - - 100% 0 mhos 76 - None None 0.04 in 0.0 iph
01/24/2017 02:51 Ice Warning 7.5F - 26F 32F 5 0% - - 100% 0 mhos 76 - None None 0.04 in 0.0 iph
01/24/2017 02:42 Ice Warning 7.9F - 26F 32F 5 0% - - 100% 0 mhos 76 - None None 0.04 in 0.0 iph
Date/Time
(MST)
Sf
Temp Chem Water Layer Surface Precipitation
Sfc Pvt Sub Frz Factor Pct Dpth DpthThk IcePct Cond Salin FI Type Intens Accum Rate
01/24/2017 02:36 Ice Warning 7.9F - 26F 32F 5 0% - - 100% 0 mhos 76 - None None 0.04 in 0.0 iph
01/24/2017 02:32 Ice Warning 7.9F - 26F 32F 5 0% - - 100% 0 mhos 76 - None None 0.04 in 0.0 iph
01/24/2017 02:22 Ice Warning 8.2F - 26F 32F 5 0% - - 100% 1 mhos 77 - None None 0.04 in 0.0 iph
01/24/2017 02:21 Ice Warning 8.2F - 26F 32F 5 0% - - 100% 1 mhos 77 - None None 0.04 in 0.0 iph
01/24/2017 02:12 Ice Warning 8.6F - 26F 32F 5 0% - - 100% 1 mhos 78 - None None 0.04 in 0.0 iph
01/24/2017 02:06 Ice Warning 8.8F - 26F 32F 5 0% - - 100% 1 mhos 78 - None None 0.04 in 0.0 iph
01/24/2017 02:02 Ice Warning 9.0F - 26F 32F 5 0% - - 100% 1 mhos 79 - None None 0.04 in 0.0 iph
01/24/2017 01:52 Ice Warning 9.7F - 26F 32F 5 0% - - 100% 1 mhos 81 - None None 0.04 in 0.0 iph
01/24/2017 01:51 Ice Warning 9.7F - 26F 32F 5 0% - - 100% 1 mhos 82 - None None 0.04 in 0.0 iph
01/24/2017 01:42 Ice Warning 10.2F - 26F 32F 5 0% - - 100% 1 mhos 84 - None None 0.04 in 0.0 iph
01/24/2017 01:36 Ice Warning 10.6F - 26F 32F 5 0% - - 100% 1 mhos 85 - None None 0.04 in 0.0 iph
01/24/2017 01:32 Ice Warning 10.6F - 26F 32F 5 0% - - 100% 1 mhos 85 - None None 0.04 in 0.0 iph
01/24/2017 01:22 Ice Warning 10.4F - 27F 32F 5 0% - - 100% 1 mhos 86 - None None 0.04 in 0.0 iph
01/24/2017 01:21 Ice Warning 10.4F - 27F 32F 5 0% - - 100% 1 mhos 86 - None None 0.04 in 0.0 iph
01/24/2017 01:12 Ice Warning 10.4F - 27F 32F 5 0% - - 100% 1 mhos 85 - None None 0.04 in 0.0 iph
Date/Time
(MST)
Sf
Temp Chem Water Layer Surface Precipitation
Sfc Pvt Sub Frz Factor Pct Dpth DpthThk IcePct Cond Salin FI Type Intens Accum Rate
01/24/2017 01:06 Ice Warning 10.2F - 27F 32F 5 0% - - 100% 1 mhos 85 - None None 0.04 in 0.0 iph
01/24/2017 01:02 Ice Warning 9.9F - 27F 32F 5 0% - - 100% 1 mhos 84 - None None 0.04 in 0.0 iph
01/24/2017 00:52 Ice Warning 9.1F - 27F 32F 5 0% - - 100% 1 mhos 82 - None None 0.04 in 0.0 iph
01/24/2017 00:51 Ice Warning 9.3F - 27F 32F 5 0% - - 100% 1 mhos 82 - None None 0.04 in 0.0 iph
01/24/2017 00:42 Ice Warning 8.6F - 27F 32F 5 0% - - 100% 1 mhos 80 - None None 0.04 in 0.0 iph
01/24/2017 00:36 Ice Warning 8.4F - 27F 32F 5 0% - - 100% 1 mhos 80 - None None 0.04 in 0.0 iph
01/24/2017 00:32 Ice Warning 8.4F - 27F 32F 5 0% - - 100% 1 mhos 80 - None None 0.04 in 0.0 iph
01/24/2017 00:22 Ice Warning 8.6F - 27F 32F 5 0% - - 100% 1 mhos 80 - None None 0.04 in 0.0 iph
01/24/2017 00:21 Ice Warning 8.6F - 27F 32F 5 0% - - 100% 1 mhos 81 - None None 0.04 in 0.0 iph
01/24/2017 00:12 Ice Warning 8.6F - 27F 32F 5 0% - - 100% 1 mhos 81 - None None 0.04 in 0.0 iph
01/24/2017 00:06 Ice Warning 8.8F - 27F 32F 5 0% - - 100% 1 mhos 81 - None None 0.04 in 0.0 iph
01/24/2017 00:02 Ice Warning 8.8F - 27F 32F 5 0% - - 100% 1 mhos 82 - None None 0.04 in 0.0 iph
01/23/2017 23:52 Ice Warning 9.3F - 27F 32F 5 0% - - 100% 1 mhos 82 - None None 0.04 in 0.0 iph
01/23/2017 23:51 Ice Warning 9.1F - 27F 32F 5 0% - - 100% 1 mhos 82 - None None 0.04 in 0.0 iph
01/23/2017 23:42 Ice Warning 9.3F - 27F 32F 5 0% - - 100% 1 mhos 83 - None None 0.04 in 0.0 iph
Date/Time
(MST)
Sf
Temp Chem Water Layer Surface Precipitation
Sfc Pvt Sub Frz Factor Pct Dpth DpthThk IcePct Cond Salin FI Type Intens Accum Rate
01/23/2017 23:36 Ice Warning 9.3F - 27F 32F 5 0% - - 100% 1 mhos 84 - None None 0.04 in 0.0 iph
01/23/2017 23:32 Ice Warning 9.5F - 27F 32F 5 0% - - 100% 1 mhos 83 - None None 0.04 in 0.0 iph
01/23/2017 23:22 Ice Warning 9.5F - 27F 32F 5 0% - - 100% 1 mhos 85 - None None 0.04 in 0.0 iph
01/23/2017 23:21 Ice Warning 9.5F - 27F 32F 5 0% - - 100% 1 mhos 85 - None None 0.04 in 0.0 iph
01/23/2017 23:12 Ice Warning 9.7F - 27F 32F 5 0% - - 100% 1 mhos 86 - None None 0.04 in 0.0 iph
01/23/2017 23:06 Ice Warning 10.0F - 27F 32F 5 0% - - 100% 1 mhos 87 - None None 0.04 in 0.0 iph
01/23/2017 23:01 Ice Warning 10.0F - 27F 32F 5 0% - - 100% 1 mhos 88 - None None 0.04 in 0.0 iph
01/23/2017 22:51 Ice Warning 10.4F - 27F 32F 5 0% - - 100% 1 mhos 91 - None None 0.04 in 0.0 iph
01/23/2017 22:51 Ice Warning 10.4F - 27F 32F 5 0% - - 100% 1 mhos 91 - None None 0.04 in 0.0 iph
01/23/2017 22:41 Ice Warning 10.4F - 27F 32F 5 0% - - 100% 1 mhos 92 - None None 0.04 in 0.0 iph
01/23/2017 22:36 Ice Warning 10.6F - 27F 32F 5 0% - - 100% 1 mhos 92 - None None 0.04 in 0.0 iph
01/23/2017 22:31 Ice Warning 10.6F - 27F 32F 5 0% - - 100% 1 mhos 93 - None None 0.04 in 0.0 iph
01/23/2017 22:21 Ice Warning 10.9F - 27F 32F 5 0% - - 100% 1 mhos 94 - None None 0.04 in 0.0 iph
01/23/2017 22:21 Ice Warning 10.9F - 27F 32F 5 0% - - 100% 1 mhos 94 - None None 0.04 in 0.0 iph
01/23/2017 22:11 Ice Warning 11.1F - 27F 32F 5 0% - - 100% 1 mhos 95 - None None 0.04 in 0.0 iph
Date/Time
(MST)
Sf
Temp Chem Water Layer Surface Precipitation
Sfc Pvt Sub Frz Factor Pct Dpth DpthThk IcePct Cond Salin FI Type Intens Accum Rate
01/23/2017 22:06 Ice Warning 11.1F - 27F 32F 5 0% - - 100% 1 mhos 96 - None None 0.04 in 0.0 iph
01/23/2017 22:01 Ice Warning 11.3F - 27F 32F 5 0% - - 100% 1 mhos 97 - None None 0.04 in 0.0 iph
01/23/2017 21:51 Ice Warning 11.5F - 27F 32F 5 0% - - 100% 1 mhos 98 - None None 0.04 in 0.0 iph
01/23/2017 21:51 Ice Warning 11.5F - 27F 32F 5 0% - - 100% 1 mhos 99 - None None 0.04 in 0.0 iph
01/23/2017 21:41 Ice Warning 11.7F - 27F 32F 5 0% - - 100% 1 mhos 100 - None None 0.04 in 0.0 iph
01/23/2017 21:36 Ice Warning 11.7F - 27F 32F 5 0% - - 100% 1 mhos 101 - None None 0.04 in 0.0 iph
01/23/2017 21:31 Ice Warning 11.8F - 27F 32F 5 0% - - 100% 1 mhos 102 - None None 0.04 in 0.0 iph
01/23/2017 21:21 Ice Warning 12.0F - 28F 32F 5 0% - - 100% 1 mhos 104 - None None 0.04 in 0.0 iph
01/23/2017 21:21 Ice Warning 12.0F - 28F 32F 5 0% - - 100% 1 mhos 104 - None None 0.04 in 0.0 iph
01/23/2017 21:11 Ice Warning 12.4F - 28F 32F 5 0% - - 99% 1 mhos 107 - None None 0.04 in 0.0 iph
01/23/2017 21:06 Ice Warning 12.4F - 28F 32F 5 0% - - 99% 1 mhos 107 - None None 0.04 in 0.0 iph
01/23/2017 21:01 Ice Warning 12.6F - 28F 32F 5 0% - - 99% 1 mhos 107 - None None 0.04 in 0.0 iph
01/23/2017 20:51 Ice Warning 13.1F - 28F 32F 5 0% - - 99% 1 mhos 109 - None None 0.04 in 0.0 iph
01/23/2017 20:51 Ice Warning 13.1F - 28F 32F 5 0% - - 99% 1 mhos 109 - None None 0.04 in 0.0 iph
01/23/2017 20:41 Ice Warning 13.3F - 28F 32F 5 0% - - 99% 1 mhos 112 - None None 0.04 in 0.0 iph
Date/Time
(MST)
Sf
Temp Chem Water Layer Surface Precipitation
Sfc Pvt Sub Frz Factor Pct Dpth DpthThk IcePct Cond Salin FI Type Intens Accum Rate
01/23/2017 20:36 Ice Warning 13.5F - 28F 32F 5 0% - - 99% 1 mhos 113 - None None 0.04 in 0.0 iph
01/23/2017 20:31 Ice Warning 13.6F - 28F 32F 5 0% - - 99% 1 mhos 115 - None None 0.04 in 0.0 iph
01/23/2017 20:21 Ice Warning 13.8F - 28F 32F 5 0% - - 99% 1 mhos 117 - None None 0.04 in 0.0 iph
01/23/2017 20:21 Ice Warning 13.8F - 28F 32F 5 0% - - 99% 1 mhos 117 - None None 0.04 in 0.0 iph
01/23/2017 20:11 Ice Warning 14.0F - 28F 32F 5 0% - - 99% 1 mhos 120 - None None 0.04 in 0.0 iph
01/23/2017 20:06 Ice Warning 14.0F - 28F 32F 5 0% - - 99% 1 mhos 119 - None None 0.04 in 0.0 iph
01/23/2017 20:01 Ice Warning 14.4F - 28F 32F 5 0% - - 99% 1 mhos 119 - None None 0.04 in 0.0 iph
01/23/2017 19:51 Ice Warning 14.4F - 28F 32F 5 0% - - 99% 1 mhos 123 - None None 0.04 in 0.0 iph
01/23/2017 19:51 Ice Warning 14.4F - 28F 32F 5 0% - - 99% 1 mhos 122 - None None 0.04 in 0.0 iph
01/23/2017 19:41 Ice Warning 14.7F - 28F 32F 5 0% - - 99% 1 mhos 126 - None None 0.04 in 0.0 iph
01/23/2017 19:36 Ice Warning 14.9F - 28F 32F 5 0% - - 99% 1 mhos 128 - None None 0.04 in 0.0 iph
01/23/2017 19:31 Ice Warning 15.1F - 28F 32F 5 0% - - 99% 1 mhos 129 - None None 0.04 in 0.0 iph
01/23/2017 19:21 Ice Warning 15.4F - 28F 32F 5 0% - - 99% 1 mhos 113 - None None 0.04 in 0.0 iph
01/23/2017 19:21 Ice Warning 15.4F - 28F 32F 5 0% - - 99% 1 mhos 113 - None None 0.04 in 0.0 iph
01/23/2017 19:11 Ice Warning 15.8F - 28F 32F 5 0% - - 99% 1 mhos 116 - None None 0.04 in 0.0 iph
Date/Time
(MST)
Sf
Temp Chem Water Layer Surface Precipitation
Sfc Pvt Sub Frz Factor Pct Dpth DpthThk IcePct Cond Salin FI Type Intens Accum Rate
01/23/2017 19:06 Ice Warning 15.8F - 28F 32F 5 0% - - 99% 1 mhos 117 - None None 0.04 in 0.0 iph
01/23/2017 19:01 Ice Warning 16.2F - 28F 32F 5 0% - - 99% 1 mhos 119 - None None 0.04 in 0.0 iph
01/23/2017 18:51 Ice Warning 16.5F - 28F 32F 5 0% - - 99% 1 mhos 121 - None None 0.04 in 0.0 iph
01/23/2017 18:50 Ice Warning 16.5F - 28F 32F 5 0% - - 99% 1 mhos 121 - None None 0.04 in 0.0 iph
01/23/2017 18:40 Ice Warning 16.7F - 28F 32F 5 0% - - 99% 1 mhos 124 - None None 0.04 in 0.0 iph
01/23/2017 18:36 Ice Warning 16.9F - 28F 32F 5 1% - - 99% 1 mhos 133 - None None 0.04 in 0.0 iph
01/23/2017 18:30 Ice Warning 17.2F - 28F 32F 5 1% - - 99% 1 mhos 144 - None None 0.04 in 0.0 iph
01/23/2017 18:21 Ice Warning 17.6F - 28F 32F 5 1% - - 99% 1 mhos 147 - None None 0.04 in 0.0 iph
01/23/2017 18:20 Ice Warning 17.6F - 28F 32F 5 1% - - 99% 1 mhos 146 - None None 0.04 in 0.0 iph
01/23/2017 18:10 Ice Warning 18.1F - 27F 32F 5 1% - - 99% 1 mhos 149 - None None 0.04 in 0.0 iph
01/23/2017 18:06 Ice Warning 18.5F - 27F 32F 5 1% - - 99% 1 mhos 151 - None None 0.04 in 0.0 iph
01/23/2017 18:00 Ice Warning 18.5F - 27F 32F 5 1% - - 99% 1 mhos 155 - None None 0.04 in 0.0 iph
01/23/2017 17:51 Ice Warning 19.6F - 27F 32F 5 1% - - 99% 1 mhos 156 - None None 0.04 in 0.0 iph
01/23/2017 17:50 Ice Warning 19.8F - 27F 32F 5 1% - - 99% 1 mhos 156 - None None 0.04 in 0.0 iph
01/23/2017 17:40 Ice Warning 20.3F - 27F 32F 5 1% - - 99% 1 mhos 159 - None None 0.04 in 0.0 iph
Date/Time
(MST)
Sf
Temp Chem Water Layer Surface Precipitation
Sfc Pvt Sub Frz Factor Pct Dpth DpthThk IcePct Cond Salin FI Type Intens Accum Rate
01/23/2017 17:36 Ice Warning 20.7F - 27F 32F 5 1% - - 99% 1 mhos 160 - None None 0.04 in 0.0 iph
01/23/2017 17:30 Ice Warning 21.2F - 27F 32F 5 1% - - 99% 1 mhos 159 - None None 0.04 in 0.0 iph
01/23/2017 17:21 Ice Warning 21.7F - 27F 32F 5 1% - - 98% 1 mhos 162 - None None 0.04 in 0.0 iph
01/23/2017 17:20 Ice Warning 21.7F - 27F 32F 5 1% - - 98% 1 mhos 162 - None None 0.04 in 0.0 iph
01/23/2017 17:10 Ice Warning 22.8F - 27F 32F 5 1% - - 98% 1 mhos 166 - None None 0.04 in 0.0 iph
01/23/2017 17:06 Ice Warning 23.2F - 27F 32F 5 1% - - 98% 1 mhos 169 - None None 0.04 in 0.0 iph
01/23/2017 17:00 Ice Warning 23.9F - 27F 32F 10 1% - - 98% 1 mhos 172 - None None 0.04 in 0.0 iph
01/23/2017 16:51 Ice Warning 24.8F - 27F 32F 10 1% - - 97% 2 mhos 195 - None None 0.04 in 0.0 iph
01/23/2017 16:50 Ice Warning 25.0F - 27F 32F 10 1% - - 97% 2 mhos 195 - None None 0.04 in 0.0 iph
01/23/2017 16:40 Ice Warning 25.7F - 27F 32F 25 1% - - 97% 2 mhos 206 - None None 0.04 in 0.0 iph
01/23/2017 16:36 Ice Warning 26.2F - 27F 32F 45 1% - - 96% 2 mhos 212 - None None 0.04 in 0.0 iph
01/23/2017 16:30 Ice Warning 26.8F - 27F 32F 55 1% - - 96% 2 mhos 220 - None None 0.04 in 0.0 iph
01/23/2017 16:21 Ice Warning 27.9F - 27F 32F 85 1% - - 94% 2 mhos 238 - None None 0.04 in 0.0 iph
01/23/2017 16:20 Ice Warning 27.9F - 27F 32F 85 1% - - 94% 2 mhos 236 - None None 0.04 in 0.0 iph
01/23/2017 16:10 Ice Warning 28.4F - 27F 32F 90 1% - - 93% 2 mhos 262 - None None 0.04 in 0.0 iph
Date/Time
(MST)
Sf
Temp Chem Water Layer Surface Precipitation
Sfc Pvt Sub Frz Factor Pct Dpth DpthThk IcePct Cond Salin FI Type Intens Accum Rate
01/23/2017 16:06 Ice Warning 28.8F - 27F 32F 85 1% - - 91% 3 mhos 293 - None None 0.04 in 0.0 iph
01/23/2017 16:00 Chemically Wet 29.1F - 27F 31F 90 2% - - 83% 4 mhos 482 - None None 0.04 in 0.0 iph
01/23/2017 15:51 Chemically Wet 29.5F - 27F 31F 95 3% - - 75% 6 mhos 652 - None None 0.04 in 0.0 iph
01/23/2017 15:50 Chemically Wet 29.5F - 27F 31F 95 3% - - 74% 6 mhos 654 - None None 0.04 in 0.0 iph
01/23/2017 15:40 Chemically Wet 30.2F - 27F 31F 95 2% - - 65% 6 mhos 632 - None None 0.04 in 0.0 iph
01/23/2017 15:36 Chemically Wet 30.4F - 27F 31F 90 3% - - 58% 6 mhos 683 - None None 0.04 in 0.0 iph
01/23/2017 15:30 Chemically Wet 30.4F - 27F 31F 95 3% - - 58% 6 mhos 673 - None None 0.04 in 0.0 iph
01/23/2017 15:21 Chemically Wet 30.7F - 27F 31F 90 3% - - 48% 6 mhos 674 - None None 0.04 in 0.0 iph
01/23/2017 15:20 Chemically Wet 30.7F - 27F 31F 95 3% - - 49% 6 mhos 672 - None None 0.04 in 0.0 iph
01/23/2017 15:10 Chemically Wet 30.9F - 27F 31F 95 3% - - 25% 7 mhos 754 - None None 0.04 in 0.0 iph
01/23/2017 15:06 Chemically Wet 30.7F - 27F 31F 95 3% - - 35% 7 mhos 746 - None None 0.04 in 0.0 iph
01/23/2017 15:00 Chemically Wet 31.3F - 27F 31F 95 3% 0.00 in - 0% 7 mhos 728 - None None 0.04 in 0.0 iph
01/23/2017 14:51 Wet 32.0F - 27F 31F 95 3% 0.00 in - 0% 7 mhos 731 - None None 0.04 in 0.0 iph
01/23/2017 14:50 Wet 32.0F - 27F 31F 95 3% 0.00 in - 0% 7 mhos 724 - None None 0.04 in 0.0 iph
01/23/2017 14:39 Wet 32.9F - 27F 31F 95 3% 0.00 in - 0% 7 mhos 717 - None None 0.04 in 0.0 iph
Date/Time
(MST)
Sf
Temp Chem Water Layer Surface Precipitation
Sfc Pvt Sub Frz Factor Pct Dpth DpthThk IcePct Cond Salin FI Type Intens Accum Rate
01/23/2017 14:36 Wet 32.7F - 27F 31F 95 3% 0.00 in - 0% 7 mhos 696 - None None 0.04 in 0.0 iph
01/23/2017 14:29 Wet 33.1F - 27F 31F 95 2% 0.00 in - 0% 6 mhos 646 - None None 0.04 in 0.0 iph
01/23/2017 14:21 Wet 33.4F - 27F 31F 95 3% 0.00 in - 0% 7 mhos 773 - None None 0.04 in 0.0 iph
01/23/2017 14:19 Wet 33.8F - 27F 31F 95 3% 0.00 in - 0% 7 mhos 762 - None None 0.04 in 0.0 iph
01/23/2017 14:09 Wet 34.0F - 27F 31F 95 3% 0.00 in - 0% 7 mhos 754 - None None 0.04 in 0.0 iph
01/23/2017 14:06 Wet 34.0F - 27F 31F 95 3% 0.00 in - 0% 8 mhos 811 - None None 0.04 in 0.0 iph
01/23/2017 13:59 Wet 34.0F - 27F 31F 95 3% 0.00 in - 0% 7 mhos 705 - None None 0.04 in 0.0 iph
01/23/2017 13:50 Wet 34.0F - 27F 31F 95 2% 0.00 in - 0% 5 mhos 546 - None None 0.04 in 0.0 iph
01/23/2017 13:49 Wet 34.2F - 27F 31F 95 2% 0.00 in - 0% 6 mhos 580 - None None 0.04 in 0.0 iph
01/23/2017 13:39 Wet 33.6F - 27F 32F 95 1% 0.00 in - 0% 4 mhos 387 - None None 0.04 in 0.0 iph
01/23/2017 13:36 Wet 33.4F - 27F 32F 95 1% 0.00 in - 0% 3 mhos 299 - None None 0.04 in 0.0 iph
01/23/2017 13:29 Wet 33.8F - 27F 31F 95 2% 0.00 in - 0% 6 mhos 624 - None None 0.04 in 0.0 iph
01/23/2017 13:21 Wet 33.8F - 27F 31F 95 2% 0.00 in - 0% 6 mhos 605 - None None 0.04 in 0.0 iph
01/23/2017 13:19 Wet 33.6F - 27F 31F 95 2% 0.00 in - 0% 6 mhos 605 - None None 0.04 in 0.0 iph
01/23/2017 13:09 Wet 32.4F - 27F 31F 95 2% 0.00 in - 0% 6 mhos 604 - None None 0.04 in 0.0 iph
Date/Time
(MST)
Sf
Temp Chem Water Layer Surface Precipitation
Sfc Pvt Sub Frz Factor Pct Dpth DpthThk IcePct Cond Salin FI Type Intens Accum Rate
01/23/2017 13:06 Wet 32.0F - 27F 31F 80 2% 0.00 in - 0% 5 mhos 574 - None None 0.04 in 0.0 iph
01/23/2017 12:59 Chemically Wet 31.3F - 27F 31F 95 2% - - 16% 5 mhos 584 - None None 0.04 in 0.0 iph
01/23/2017 12:51 Chemically Wet 31.3F - 27F 31F 95 2% - - 16% 5 mhos 581 - Snow Slight 0.04 in 0.0 iph
01/23/2017 12:49 Chemically Wet 31.5F - 27F 31F 95 2% - - 3% 5 mhos 575 - Snow Slight 0.04 in 0.0 iph
01/23/2017 12:39 Chemically Wet 30.7F - 27F 32F 95 2% - - 65% 4 mhos 408 - Snow Slight 0.04 in 0.0 iph
01/23/2017 12:36 Ice Warning 30.6F - 27F 32F 95 1% - - 86% 2 mhos 205 - Snow Slight 0.04 in 0.0 iph
01/23/2017 12:29 Ice Warning 30.2F - 27F 32F 95 0% - - 94% 1 mhos 108 - Snow Slight 0.04 in 0.0 iph
01/23/2017 12:21 Ice Warning 29.5F - 27F 32F 90 0% - - 96% 1 mhos 100 - Snow Slight 0.04 in 0.0 iph
01/23/2017 12:19 Ice Warning 29.5F - 27F 32F 75 0% - - 96% 1 mhos 101 - Snow Slight 0.04 in 0.0 iph
01/23/2017 12:09 Ice Warning 29.3F - 27F 32F 80 0% - - 96% 1 mhos 101 - Snow Slight 0.04 in 0.0 iph
01/23/2017 12:06 Ice Warning 29.1F - 27F 32F 90 0% - - 96% 1 mhos 101 - Snow Slight 0.04 in 0.0 iph
01/23/2017 11:59 Ice Warning 28.9F - 27F 32F 85 0% - - 97% 1 mhos 103 - Snow Slight 0.04 in 0.0 iph
01/23/2017 11:51 Ice Warning 28.8F - 27F 32F 70 0% - - 97% 1 mhos 103 - Snow Slight 0.04 in 0.0 iph
01/23/2017 11:49 Ice Warning 28.8F - 27F 32F 70 0% - - 97% 1 mhos 103 - Snow Slight 0.04 in 0.0 iph
01/23/2017 11:39 Ice Warning 28.2F - 27F 32F 70 0% - - 97% 1 mhos 105 - Snow Slight 0.04 in 0.0 iph
Date/Time
(MST)
Sf
Temp Chem Water Layer Surface Precipitation
Sfc Pvt Sub Frz Factor Pct Dpth DpthThk IcePct Cond Salin FI Type Intens Accum Rate
01/23/2017 11:36 Ice Warning 28.0F - 27F 32F 55 0% - - 97% 1 mhos 106 - Snow Slight 0.04 in 0.0 iph
01/23/2017 11:29 Ice Warning 27.7F - 27F 32F 55 0% - - 98% 1 mhos 106 - Snow Slight 0.04 in 0.0 iph
01/23/2017 11:21 Ice Warning 27.5F - 27F 32F 50 0% - - 98% 1 mhos 106 - Snow Slight 0.04 in 0.0 iph
01/23/2017 11:19 Ice Warning 27.3F - 27F 32F 50 0% - - 98% 1 mhos 107 - Snow Slight 0.04 in 0.0 iph
01/23/2017 11:09 Ice Warning 27.3F - 27F 32F 50 0% - - 98% 1 mhos 109 - Snow Slight 0.03 in 0.0 iph
01/23/2017 11:06 Ice Warning 27.3F - 27F 32F 50 0% - - 98% 1 mhos 110 - Snow Slight 0.03 in 0.0 iph
01/23/2017 10:59 Ice Warning 27.3F - 27F 32F 65 0% - - 98% 1 mhos 112 - Snow Slight 0.03 in 0.0 iph
01/23/2017 10:51 Ice Warning 26.6F - 27F 32F 55 0% - - 98% 1 mhos 119 - Snow Slight 0.03 in 0.0 iph
01/23/2017 10:49 Ice Warning 26.4F - 27F 32F 60 0% - - 98% 1 mhos 120 - Snow Slight 0.03 in 0.0 iph
01/23/2017 10:39 Ice Warning 25.5F - 27F 32F 55 0% - - 98% 1 mhos 128 - Snow Slight 0.03 in 0.0 iph
01/23/2017 10:36 Ice Warning 25.2F - 27F 32F 75 0% - - 98% 1 mhos 129 - Snow Slight 0.03 in 0.0 iph
01/23/2017 10:28 Ice Warning 24.1F - 27F 32F 85 0% - - 98% 1 mhos 127 - Snow Slight 0.03 in 0.0 iph
01/23/2017 10:21 Ice Warning 23.7F - 27F 32F 90 0% - - 99% 1 mhos 126 - Snow Slight 0.03 in 0.0 iph
01/23/2017 10:18 Ice Warning 23.7F - 27F 32F 90 0% - - 99% 1 mhos 126 - Snow Slight 0.03 in 0.0 iph
01/23/2017 10:08 Ice Warning 23.2F - 27F 32F 90 0% - - 99% 1 mhos 123 - Snow Slight 0.03 in 0.0 iph
Date/Time
(MST)
Sf
Temp Chem Water Layer Surface Precipitation
Sfc Pvt Sub Frz Factor Pct Dpth DpthThk IcePct Cond Salin FI Type Intens Accum Rate
01/23/2017 10:06 Ice Warning 22.8F - 27F 32F 90 0% - - 99% 1 mhos 122 - Snow Slight 0.03 in 0.0 iph
01/23/2017 09:58 Ice Warning 22.5F - 27F 32F 95 0% - - 99% 1 mhos 119 - Snow Slight 0.03 in 0.0 iph
01/23/2017 09:51 Ice Warning 21.9F - 27F 32F 80 0% - - 99% 1 mhos 117 - Snow Slight 0.03 in 0.0 iph
01/23/2017 09:48 Ice Warning 21.9F - 27F 32F 95 0% - - 99% 1 mhos 116 - Snow Slight 0.03 in 0.0 iph
01/23/2017 09:38 Ice Warning 21.4F - 27F 32F 75 0% - - 99% 1 mhos 116 - Snow Slight 0.02 in 0.0 iph
01/23/2017 09:35 Ice Warning 21.0F - 27F 32F 85 0% - - 99% 1 mhos 116 - Snow Slight 0.02 in 0.0 iph
01/23/2017 09:28 Ice Warning 21.0F - 27F 32F 75 0% - - 99% 1 mhos 115 - Yes Slight 0.02 in 0.0 iph
01/23/2017 09:21 Ice Warning 21.0F - 27F 32F 75 0% - - 99% 1 mhos 115 - Yes Slight 0.02 in 0.0 iph
01/23/2017 09:18 Ice Warning 21.2F - 27F 32F 75 0% - - 99% 1 mhos 116 - Snow Slight 0.02 in 0.0 iph
01/23/2017 09:08 Ice Warning 21.0F - 27F 32F 85 0% - - 99% 1 mhos 115 - Yes Slight 0.02 in 0.0 iph
01/23/2017 09:06 Ice Warning 21.0F - 27F 32F 80 0% - - 99% 1 mhos 115 - Yes Slight 0.02 in 0.0 iph
01/23/2017 08:58 Ice Warning 21.0F - 27F 32F 80 0% - - 99% 1 mhos 115 - Yes Slight 0.02 in 0.0 iph
01/23/2017 08:51 Ice Warning 21.2F - 27F 32F 80 0% - - 99% 1 mhos 114 - Yes Slight 0.02 in 0.0 iph
01/23/2017 08:48 Ice Warning 21.2F - 27F 32F 75 0% - - 99% 1 mhos 115 - Yes Slight 0.02 in 0.0 iph
01/23/2017 08:38 Ice Warning 21.2F - 27F 32F 75 0% - - 99% 1 mhos 113 - Yes Slight 0.02 in 0.0 iph
Date/Time
(MST)
Sf
Temp Chem Water Layer Surface Precipitation
Sfc Pvt Sub Frz Factor Pct Dpth DpthThk IcePct Cond Salin FI Type Intens Accum Rate
01/23/2017 08:36 Ice Warning 21.2F - 27F 32F 80 0% - - 99% 1 mhos 113 - Yes Slight 0.02 in 0.0 iph
01/23/2017 08:28 Ice Warning 21.2F - 27F 32F 75 0% - - 99% 1 mhos 112 - Snow Slight 0.02 in 0.0 iph
01/23/2017 08:21 Ice Warning 21.2F - 27F 32F 70 0% - - 99% 1 mhos 112 - Snow Slight 0.02 in 0.0 iph
01/23/2017 08:18 Ice Warning 21.2F - 27F 32F 70 0% - - 99% 1 mhos 112 - Snow Slight 0.02 in 0.0 iph
01/23/2017 08:08 Ice Warning 21.4F - 28F 32F 65 0% - - 99% 1 mhos 111 - Snow Slight 0.02 in 0.0 iph
01/23/2017 08:06 Ice Warning 21.4F - 27F 32F 60 0% - - 99% 1 mhos 110 - Snow Slight 0.02 in 0.0 iph
01/23/2017 07:58 Ice Warning 21.2F - 28F 32F 55 0% - - 99% 1 mhos 108 - Yes Slight 0.02 in 0.0 iph
01/23/2017 07:51 Ice Warning 21.4F - 28F 32F 55 0% - - 99% 1 mhos 108 - Yes Slight 0.02 in 0.0 iph
01/23/2017 07:48 Ice Warning 21.4F - 27F 32F 50 0% - - 99% 1 mhos 107 - Yes Slight 0.02 in 0.0 iph
01/23/2017 07:38 Ice Warning 21.4F - 28F 32F 50 0% - - 99% 1 mhos 107 - Yes Slight 0.02 in 0.0 iph
01/23/2017 07:36 Ice Warning 21.4F - 27F 32F 50 0% - - 99% 1 mhos 107 - Yes Slight 0.02 in 0.0 iph
01/23/2017 07:28 Ice Warning 21.4F - 28F 32F 45 0% - - 99% 1 mhos 105 - Snow Slight 0.01 in 0.0 iph
01/23/2017 07:21 Ice Warning 21.4F - 28F 32F 45 0% - - 99% 1 mhos 105 - Snow Slight 0.01 in 0.0 iph
01/23/2017 07:18 Ice Warning 21.4F - 28F 32F 40 0% - - 99% 1 mhos 104 - Snow Slight 0.01 in 0.0 iph
01/23/2017 07:08 Ice Warning 21.4F - 28F 32F 35 0% - - 99% 1 mhos 103 - Snow Slight 0.01 in 0.0 iph
Date/Time
(MST)
Sf
Temp Chem Water Layer Surface Precipitation
Sfc Pvt Sub Frz Factor Pct Dpth DpthThk IcePct Cond Salin FI Type Intens Accum Rate
01/23/2017 07:06 Ice Warning 21.4F - 28F 32F 35 0% - - 99% 1 mhos 103 - Snow Slight 0.01 in 0.0 iph
01/23/2017 06:58 Ice Warning 21.2F - 28F 32F 25 0% - - 99% 1 mhos 101 - Snow Slight 0.01 in 0.0 iph
01/23/2017 06:51 Ice Warning 21.2F - 28F 32F 20 0% - - 99% 1 mhos 99 - Snow Slight 0.01 in 0.0 iph
01/23/2017 06:48 Ice Warning 21.2F - 28F 32F 15 0% - - 99% 1 mhos 98 - Snow Slight 0.01 in 0.0 iph
01/23/2017 06:38 Ice Warning 21.7F - 28F 32F 10 0% - - 99% 1 mhos 102 - Snow Slight 0.01 in 0.0 iph
01/23/2017 06:36 Ice Warning 21.7F - 28F 32F 10 0% - - 99% 1 mhos 102 - Snow Slight 0.01 in 0.0 iph
01/23/2017 06:28 Ice Warning 21.7F - 28F 32F 10 0% - - 99% 1 mhos 102 - Snow Slight 0.01 in 0.0 iph
01/23/2017 06:21 Ice Warning 21.7F - 28F 32F 10 0% - - 99% 1 mhos 102 - Snow Slight 0.01 in 0.0 iph
01/23/2017 06:18 Ice Warning 21.7F - 28F 32F 10 0% - - 99% 1 mhos 101 - Snow Slight 0.01 in 0.0 iph
01/23/2017 06:07 Ice Warning 21.7F - 28F 32F 10 0% - - 99% 1 mhos 100 - Snow Slight 0.01 in 0.0 iph
01/23/2017 06:06 Ice Warning 21.7F - 28F 32F 10 0% - - 99% 1 mhos 100 - Snow Slight 0.01 in 0.0 iph
01/23/2017 05:57 Ice Warning 21.7F - 28F 32F 10 0% - - 99% 1 mhos 100 - Snow Slight 0.00 in 0.0 iph
01/23/2017 05:51 Ice Warning 21.7F - 28F 32F 10 0% - - 99% 1 mhos 101 - Snow Slight 0.00 in 0.0 iph
01/23/2017 05:47 Ice Warning 21.7F - 28F 32F 10 0% - - 99% 1 mhos 101 - Snow Slight 0.00 in 0.0 iph
01/23/2017 05:37 Ice Warning 21.9F - 28F 32F 10 0% - - 99% 1 mhos 102 - Snow Slight 0.00 in 0.0 iph
Date/Time
(MST)
Sf
Temp Chem Water Layer Surface Precipitation
Sfc Pvt Sub Frz Factor Pct Dpth DpthThk IcePct Cond Salin FI Type Intens Accum Rate
01/23/2017 05:36 Ice Warning 21.9F - 28F 32F 10 0% - - 99% 1 mhos 102 - Snow Slight 0.00 in 0.0 iph
01/23/2017 05:27 Ice Warning 21.9F - 28F 32F 10 0% - - 99% 1 mhos 103 - Snow Slight 0.00 in 0.0 iph
01/23/2017 05:21 Ice Warning 21.9F - 28F 32F 10 0% - - 99% 1 mhos 103 - Snow Slight 0.00 in 0.0 iph
01/23/2017 05:17 Ice Warning 21.9F - 28F 32F 10 0% - - 99% 1 mhos 103 - Snow Slight 0.00 in 0.0 iph
01/23/2017 05:07 Ice Warning 21.9F - 28F 32F 10 0% - - 99% 1 mhos 103 - Snow Slight 0.00 in 0.0 iph
01/23/2017 05:06 Ice Warning 22.1F - 28F 32F 10 0% - - 99% 1 mhos 103 - Snow Slight 0.00 in 0.0 iph
01/23/2017 04:57 Ice Warning 22.1F - 28F 32F 10 0% - - 99% 1 mhos 104 - Snow Slight 0.00 in 0.0 iph
01/23/2017 04:51 Ice Warning 22.3F - 28F 32F 10 0% - - 99% 1 mhos 104 - Snow Slight 0.00 in 0.0 iph
01/23/2017 04:47 Ice Warning 22.1F - 28F 32F 10 0% - - 99% 1 mhos 104 - Snow Slight 0.00 in 0.0 iph
01/23/2017 04:37 Ice Warning 22.3F - 28F 32F 10 0% - - 99% 1 mhos 104 - Snow Slight 0.00 in 0.0 iph
01/23/2017 04:36 Ice Warning 22.3F - 28F 32F 10 0% - - 99% 1 mhos 104 - Snow Slight 0.00 in 0.0 iph
01/23/2017 04:27 Ice Warning 22.3F - 28F 32F 10 0% - - 99% 1 mhos 105 - Snow Slight 0.00 in 0.0 iph
01/23/2017 04:21 Ice Warning 22.5F - 28F 32F 10 0% - - 99% 1 mhos 106 - Snow Slight 0.00 in 0.0 iph
01/23/2017 04:17 Ice Warning 22.5F - 28F 32F 10 0% - - 99% 1 mhos 106 - Snow Slight 0.00 in 0.0 iph
Change End Date:

Copyright © 1998-2015 Vaisala, Inc.
All Rights Reserved
Send comments about the data to:
SCAN Web ® is a registered trademark of Vaisala, Inc.
SCAN Web Version 6.0